Portada
METAR-TAF:

METAR-TAF

Aeroports :

Dalian, Xina

latitud: 38-54N, longitud: 121-38E, altitud: 97 m

Observació

L'informe es va fer fa 43 minuts, a les 09:30 UTC
Vent 6 kt del Oest/Sud-Oest
Temperatura 14°C
Humitat 51%
Pressió 1026 hPa
Visibilitat 10 km o més
sense núvols per sota de 1500 mi sense presència de cumulonimbus.

METAR: ZYTL 290930Z 25003MPS CAVOK 14/04 Q1026 NOSIG

Hora: 18:13 (10:13 UTC)

Pronòstic

L'informe es va fer fa 7 hores i 12 minuts, a les 03:01 UTC
Pronòstic vàlid del 29 a les 06 UTC al 30 a les 06 UTC
Vent 8 kt del Oest
Visibilitat: 5000 m
Núvols disperses a una alçada de 3300 ft
boirina
Temporalment
l' 29 a les 06 UTC al 29 a les 12 UTC
Vent 10 kt del Sud-Est

TAF: ZYTL 290301Z 2906/3006 28004MPS 5000 BR SCT033 TX18/2906Z TN05/2921Z TEMPO 2906/2912 13005MPS

Observacions i pronòstics meteorològics de més de 4000 aeroports (METAR i TAF).

Les estacions disponibles són els punts grocs i vermells al mapa.

Posi el ratolí al punt desitjat per veure el nom de l'estació.

Feu clic per veure les observacions i els pronòstics meteorològics.

Per canviar el mapa: feu clic els botons verds amb una creu de color negre per apropar; al botó verd amb un guió per allunyar la imatge; o en les fletxes verdes per a mapes adjacents.


METAR-TAF: